createdAt,value
2018-12-19T00:00:01.883Z,0.87
2018-12-19T00:05:04.274Z,0.86
2018-12-19T00:10:08.774Z,0.91
2018-12-19T00:15:11.037Z,0.88
2018-12-19T00:20:13.344Z,0.86
2018-12-19T00:25:15.771Z,0.75
2018-12-19T00:30:20.193Z,0.67
2018-12-19T00:35:24.538Z,0.60
2018-12-19T00:40:26.783Z,0.49
2018-12-19T00:45:29.151Z,0.48
2018-12-19T00:50:31.413Z,0.47
2018-12-19T00:55:33.740Z,0.49
2018-12-19T01:00:36.013Z,0.43
2018-12-19T01:05:38.354Z,0.41
2018-12-19T01:10:41.874Z,0.51
2018-12-19T01:15:44.234Z,0.53
2018-12-19T01:20:46.563Z,0.53
2018-12-19T01:25:48.923Z,0.53
2018-12-19T01:30:51.181Z,0.53
2018-12-19T01:35:53.454Z,0.53
2018-12-19T01:40:55.747Z,0.52
2018-12-19T01:45:58.111Z,0.42
2018-12-19T01:51:00.851Z,0.39
2018-12-19T01:56:03.393Z,0.35
2018-12-19T02:01:05.835Z,0.38
2018-12-19T02:06:08.250Z,0.30
2018-12-19T02:11:10.552Z,0.27
2018-12-19T02:16:12.851Z,0.30
2018-12-19T02:21:15.238Z,0.30
2018-12-19T02:26:17.697Z,0.30
2018-12-19T02:31:20.007Z,0.31
2018-12-19T02:36:22.258Z,0.38
2018-12-19T02:41:24.588Z,0.40
2018-12-19T02:46:26.858Z,0.34
2018-12-19T02:51:29.125Z,0.35
2018-12-19T02:56:31.421Z,0.29
2018-12-19T03:01:33.693Z,0.23
2018-12-19T03:06:35.996Z,0.21
2018-12-19T03:11:38.251Z,0.21
2018-12-19T03:16:40.547Z,0.25
2018-12-19T03:21:42.796Z,0.27
2018-12-19T03:26:45.322Z,0.54
2018-12-19T03:31:47.578Z,0.50
2018-12-19T03:36:49.869Z,0.41
2018-12-19T03:41:52.264Z,0.53
2018-12-19T03:46:54.599Z,0.47
2018-12-19T03:51:56.887Z,0.52
2018-12-19T03:56:59.580Z,0.74
2018-12-19T04:02:01.876Z,0.85
2018-12-19T04:07:04.153Z,0.83
2018-12-19T04:12:06.443Z,0.89
2018-12-19T04:17:08.723Z,0.87
2018-12-19T04:22:11.059Z,0.86
2018-12-19T04:27:13.405Z,0.83
2018-12-19T04:32:15.682Z,0.90
2018-12-19T04:37:17.928Z,1.09
2018-12-19T04:42:20.500Z,1.19
2018-12-19T04:47:22.759Z,1.22
2018-12-19T04:52:25.079Z,1.15
2018-12-19T04:57:27.379Z,1.06
2018-12-19T05:02:29.879Z,1.07
2018-12-19T05:07:32.409Z,1.07
2018-12-19T05:12:34.768Z,1.07
2018-12-19T05:17:37.060Z,1.00
2018-12-19T05:22:39.341Z,1.00
2018-12-19T05:27:41.666Z,1.00
2018-12-19T05:32:43.977Z,1.08
2018-12-19T05:37:46.338Z,1.13
2018-12-19T05:42:48.596Z,1.14
2018-12-19T05:47:50.855Z,1.18
2018-12-19T05:52:53.129Z,1.22
2018-12-19T05:57:55.448Z,1.15
2018-12-19T06:02:57.741Z,1.22
2018-12-19T06:08:00.005Z,1.22
2018-12-19T06:13:02.248Z,1.21
2018-12-19T06:18:04.535Z,1.36
2018-12-19T06:23:06.982Z,1.48
2018-12-19T06:28:09.325Z,1.55
2018-12-19T06:33:11.601Z,1.52
2018-12-19T06:38:14.109Z,1.50
2018-12-19T06:43:16.456Z,1.59
2018-12-19T06:48:18.882Z,1.60
2018-12-19T06:53:21.233Z,1.52
2018-12-19T06:58:23.574Z,1.53
2018-12-19T07:03:25.849Z,1.50
2018-12-19T07:08:28.159Z,1.44
2018-12-19T07:13:30.480Z,1.79
2018-12-19T07:18:33.205Z,1.77
2018-12-19T07:23:35.642Z,1.81
2018-12-19T07:28:37.941Z,1.85
2018-12-19T07:33:40.277Z,1.82
2018-12-19T07:38:42.542Z,1.93
2018-12-19T07:43:44.813Z,1.96
2018-12-19T07:48:47.245Z,1.95
2018-12-19T07:53:49.516Z,1.99
2018-12-19T07:58:51.887Z,2.04
2018-12-19T08:03:54.150Z,2.10
2018-12-19T08:08:56.417Z,2.12
2018-12-19T08:13:58.759Z,2.12
2018-12-19T08:19:01.048Z,2.13
2018-12-19T08:24:03.324Z,2.18
2018-12-19T08:29:05.715Z,2.26
2018-12-19T08:34:08.444Z,2.26
2018-12-19T08:39:10.733Z,2.28
2018-12-19T08:44:13.003Z,2.32
2018-12-19T08:49:15.268Z,2.34
2018-12-19T08:54:17.511Z,2.44
2018-12-19T08:59:19.825Z,2.50
2018-12-19T09:04:25.775Z,2.50
2018-12-19T09:09:26.472Z,2.61
2018-12-19T09:14:28.820Z,2.70
2018-12-19T09:19:31.244Z,2.80
2018-12-19T09:24:33.636Z,2.84
2018-12-19T09:29:36.200Z,2.91
2018-12-19T09:34:38.462Z,2.95
2018-12-19T09:39:40.726Z,3.00
2018-12-19T09:44:43.124Z,3.04
2018-12-19T09:49:45.414Z,3.10
2018-12-19T09:54:47.687Z,3.14
2018-12-19T09:59:50.000Z,3.18
2018-12-19T10:04:52.376Z,3.21
2018-12-19T10:09:54.901Z,3.24
2018-12-19T10:14:57.191Z,3.28
2018-12-19T10:19:59.699Z,3.32
2018-12-19T10:25:07.886Z,3.34
2018-12-19T10:30:13.088Z,3.41
2018-12-19T10:35:15.369Z,3.41
2018-12-19T10:40:17.653Z,3.43
2018-12-19T10:45:19.931Z,3.48
2018-12-19T10:50:22.217Z,3.52
2018-12-19T10:55:24.624Z,3.56
2018-12-19T11:00:32.750Z,3.52
2018-12-19T11:05:35.016Z,3.56
2018-12-19T11:10:37.301Z,3.55
2018-12-19T11:15:39.675Z,3.49
2018-12-19T11:20:41.959Z,3.45
2018-12-19T11:25:44.277Z,3.35
2018-12-19T11:30:46.622Z,3.25
2018-12-19T11:35:48.901Z,3.17
2018-12-19T11:40:51.172Z,3.18
2018-12-19T11:45:53.503Z,3.18
2018-12-19T11:50:55.790Z,3.17
2018-12-19T11:55:59.205Z,3.10
2018-12-19T12:01:01.780Z,3.07
2018-12-19T12:06:05.229Z,3.05
2018-12-19T12:11:07.649Z,2.98
2018-12-19T12:16:09.957Z,3.03
2018-12-19T12:21:12.246Z,2.92
2018-12-19T12:26:14.572Z,2.93
2018-12-19T12:31:16.943Z,2.90
2018-12-19T12:36:19.645Z,2.92
2018-12-19T12:41:21.901Z,2.87
2018-12-19T12:46:24.169Z,2.89
2018-12-19T12:51:26.461Z,2.84
2018-12-19T12:56:28.998Z,2.87
2018-12-19T13:01:31.328Z,2.87
2018-12-19T13:06:33.622Z,2.84
2018-12-19T13:11:36.121Z,2.87
2018-12-19T13:16:38.415Z,2.85
2018-12-19T13:21:40.802Z,2.76
2018-12-19T13:26:44.167Z,2.74
2018-12-19T13:31:46.842Z,2.76
2018-12-19T13:36:49.103Z,2.73
2018-12-19T13:41:51.388Z,2.71
2018-12-19T13:46:54.017Z,2.71
2018-12-19T13:51:56.343Z,2.69
2018-12-19T13:56:58.630Z,2.69
2018-12-19T14:02:01.036Z,2.69
2018-12-19T14:07:04.073Z,2.72
2018-12-19T14:12:12.162Z,2.74
2018-12-19T14:17:10.836Z,2.74
2018-12-19T14:22:30.071Z,2.76
2018-12-19T14:27:32.499Z,2.77
2018-12-19T14:32:34.797Z,2.76
2018-12-19T14:37:37.109Z,2.76
2018-12-19T14:42:39.385Z,2.76
2018-12-19T14:47:41.728Z,2.76
2018-12-19T14:52:44.693Z,2.76
2018-12-19T14:57:46.995Z,2.83
2018-12-19T15:02:49.761Z,2.84
2018-12-19T15:07:52.152Z,2.89
2018-12-19T15:12:55.649Z,2.87
2018-12-19T15:17:59.295Z,2.84
2018-12-19T15:23:01.563Z,2.83
2018-12-19T15:28:03.868Z,2.81
2018-12-19T15:33:06.217Z,2.79
2018-12-19T15:38:09.664Z,2.79
2018-12-19T15:43:11.918Z,2.79
2018-12-19T15:48:14.203Z,2.79
2018-12-19T15:53:16.576Z,2.79
2018-12-19T15:58:18.901Z,2.79
2018-12-19T16:03:21.782Z,2.83
2018-12-19T16:08:24.107Z,2.84
2018-12-19T16:13:26.474Z,2.83
2018-12-19T16:18:28.773Z,2.86
2018-12-19T16:23:31.053Z,2.90
2018-12-19T16:28:33.360Z,2.90
2018-12-19T16:33:35.669Z,2.86
2018-12-19T16:38:37.985Z,2.88
2018-12-19T16:43:40.243Z,2.87
2018-12-19T16:48:43.566Z,2.87
2018-12-19T16:53:45.953Z,2.90
2018-12-19T16:58:48.317Z,2.91
2018-12-19T17:03:50.610Z,2.90
2018-12-19T17:08:53.026Z,2.89
2018-12-19T17:13:55.423Z,2.88
2018-12-19T17:18:57.725Z,2.86
2018-12-19T17:24:00.010Z,2.84
2018-12-19T17:29:02.337Z,2.82
2018-12-19T17:34:04.821Z,2.82
2018-12-19T17:39:07.297Z,2.82
2018-12-19T17:44:11.673Z,2.82
2018-12-19T17:49:14.134Z,2.82
2018-12-19T17:54:16.472Z,2.82
2018-12-19T17:59:18.757Z,2.83
2018-12-19T18:04:21.218Z,2.82
2018-12-19T18:09:23.707Z,2.82
2018-12-19T18:14:26.134Z,2.85
2018-12-19T18:19:29.057Z,2.85
2018-12-19T18:24:31.415Z,2.86
2018-12-19T18:29:33.717Z,2.88
2018-12-19T18:34:36.289Z,2.88
2018-12-19T18:39:38.662Z,2.92
2018-12-19T18:44:41.020Z,2.92
2018-12-19T18:50:27.896Z,2.93
2018-12-19T18:55:30.281Z,2.94
2018-12-19T19:00:35.893Z,2.93
2018-12-19T19:05:39.410Z,2.95
2018-12-19T19:10:41.902Z,2.96
2018-12-19T19:15:44.369Z,3.00
2018-12-19T19:20:46.739Z,3.00
2018-12-19T19:25:50.205Z,2.97
2018-12-19T19:30:52.936Z,2.97
2018-12-19T19:35:55.437Z,2.97
2018-12-19T19:40:59.581Z,2.99
2018-12-19T19:46:03.232Z,3.05
2018-12-19T19:51:05.918Z,3.04
2018-12-19T19:56:08.222Z,3.07
2018-12-19T20:01:10.464Z,3.05
2018-12-19T20:06:13.977Z,3.07
2018-12-19T20:11:17.884Z,3.03
2018-12-19T20:16:20.313Z,3.02
2018-12-19T20:21:22.603Z,3.04
2018-12-19T20:26:24.997Z,3.02
2018-12-19T20:31:27.508Z,2.98
2018-12-19T20:36:29.830Z,2.97
2018-12-19T20:41:32.249Z,2.95
2018-12-19T20:46:35.331Z,2.94
2018-12-19T20:51:43.073Z,2.92
2018-12-19T20:56:46.037Z,2.95
2018-12-19T21:01:48.437Z,2.95
2018-12-19T21:06:50.769Z,2.92
2018-12-19T21:11:53.145Z,2.89
2018-12-19T21:17:01.285Z,2.90
2018-12-19T21:22:06.169Z,2.92
2018-12-19T21:27:08.733Z,2.87
2018-12-19T21:32:11.097Z,2.90
2018-12-19T21:37:13.516Z,2.88
2018-12-19T21:42:15.928Z,2.85
2018-12-19T21:47:18.607Z,2.86
2018-12-19T21:52:20.968Z,2.91
2018-12-19T21:57:23.596Z,2.91
2018-12-19T22:02:25.922Z,2.93
2018-12-19T22:07:28.322Z,2.90
2018-12-19T22:12:31.262Z,2.92
2018-12-19T22:17:39.381Z,2.92
2018-12-19T22:22:41.855Z,2.93
2018-12-19T22:27:44.240Z,2.92
2018-12-19T22:32:46.604Z,2.96
2018-12-19T22:37:49.133Z,2.93
2018-12-19T22:42:51.660Z,2.93
2018-12-19T22:47:54.016Z,2.98
2018-12-19T22:52:56.379Z,2.96
2018-12-19T22:57:58.847Z,2.95
2018-12-19T23:03:07.497Z,2.96
2018-12-19T23:08:10.918Z,3.01
2018-12-19T23:13:13.566Z,2.98
2018-12-19T23:18:23.605Z,3.02
2018-12-19T23:23:32.204Z,2.98
2018-12-19T23:28:40.535Z,2.99
2018-12-19T23:33:42.822Z,2.98
2018-12-19T23:38:45.286Z,2.98
2018-12-19T23:43:47.753Z,3.01
2018-12-19T23:48:50.116Z,2.99
2018-12-19T23:53:52.464Z,2.98
2018-12-19T23:58:54.956Z,2.94
